sensor_id;sensor_type;location;lat;lon;timestamp;temperature;humidity
4795;DHT22;2411;47.060;15.064;2022-11-18T00:01:14;2.70;93.70
4795;DHT22;2411;47.060;15.064;2022-11-18T00:03:43;2.70;93.20
4795;DHT22;2411;47.060;15.064;2022-11-18T00:06:21;2.50;94.40
4795;DHT22;2411;47.060;15.064;2022-11-18T00:08:50;2.60;99.90
4795;DHT22;2411;47.060;15.064;2022-11-18T00:11:19;2.50;99.90
4795;DHT22;2411;47.060;15.064;2022-11-18T00:14:14;2.50;99.90
4795;DHT22;2411;47.060;15.064;2022-11-18T00:16:59;2.70;99.90
4795;DHT22;2411;47.060;15.064;2022-11-18T00:19:30;2.80;99.90
4795;DHT22;2411;47.060;15.064;2022-11-18T00:21:58;2.90;99.90
4795;DHT22;2411;47.060;15.064;2022-11-18T00:24:25;3.00;99.90
4795;DHT22;2411;47.060;15.064;2022-11-18T00:26:54;2.90;99.90
4795;DHT22;2411;47.060;15.064;2022-11-18T00:29:22;2.90;99.90
4795;DHT22;2411;47.060;15.064;2022-11-18T00:31:49;2.80;99.90
4795;DHT22;2411;47.060;15.064;2022-11-18T00:34:17;2.70;99.90
4795;DHT22;2411;47.060;15.064;2022-11-18T00:36:45;2.60;99.90
4795;DHT22;2411;47.060;15.064;2022-11-18T00:39:15;2.70;99.90
4795;DHT22;2411;47.060;15.064;2022-11-18T00:41:44;2.70;99.90
4795;DHT22;2411;47.060;15.064;2022-11-18T00:44:29;2.70;99.90
4795;DHT22;2411;47.060;15.064;2022-11-18T00:46:57;2.70;99.90
4795;DHT22;2411;47.060;15.064;2022-11-18T00:49:24;2.60;98.10
4795;DHT22;2411;47.060;15.064;2022-11-18T00:51:51;2.60;99.90
4795;DHT22;2411;47.060;15.064;2022-11-18T00:54:19;2.60;99.90
4795;DHT22;2411;47.060;15.064;2022-11-18T00:56:47;2.60;99.90
4795;DHT22;2411;47.060;15.064;2022-11-18T00:59:14;2.60;99.90
4795;DHT22;2411;47.060;15.064;2022-11-18T01:01:42;2.70;99.90
4795;DHT22;2411;47.060;15.064;2022-11-18T01:04:09;2.80;99.90
4795;DHT22;2411;47.060;15.064;2022-11-18T01:06:37;2.80;99.90
4795;DHT22;2411;47.060;15.064;2022-11-18T01:09:04;2.70;99.90
4795;DHT22;2411;47.060;15.064;2022-11-18T01:11:31;2.60;99.90
4795;DHT22;2411;47.060;15.064;2022-11-18T01:14:17;2.50;99.90
4795;DHT22;2411;47.060;15.064;2022-11-18T01:16:45;2.50;99.90
4795;DHT22;2411;47.060;15.064;2022-11-18T01:19:18;2.60;99.90
4795;DHT22;2411;47.060;15.064;2022-11-18T01:21:45;2.40;99.90
4795;DHT22;2411;47.060;15.064;2022-11-18T01:24:13;2.40;99.90
4795;DHT22;2411;47.060;15.064;2022-11-18T01:26:40;2.50;99.90
4795;DHT22;2411;47.060;15.064;2022-11-18T01:29:08;2.60;99.90
4795;DHT22;2411;47.060;15.064;2022-11-18T01:31:36;2.60;99.90
4795;DHT22;2411;47.060;15.064;2022-11-18T01:34:26;2.80;99.90
4795;DHT22;2411;47.060;15.064;2022-11-18T01:36:54;2.80;99.90
4795;DHT22;2411;47.060;15.064;2022-11-18T01:39:22;2.80;99.90
4795;DHT22;2411;47.060;15.064;2022-11-18T01:41:50;2.90;99.90
4795;DHT22;2411;47.060;15.064;2022-11-18T01:47:24;2.80;99.90
4795;DHT22;2411;47.060;15.064;2022-11-18T01:49:52;2.70;99.90
4795;DHT22;2411;47.060;15.064;2022-11-18T01:52:38;2.70;99.90
4795;DHT22;2411;47.060;15.064;2022-11-18T01:55:15;2.60;99.90
4795;DHT22;2411;47.060;15.064;2022-11-18T01:57:47;2.60;99.90
4795;DHT22;2411;47.060;15.064;2022-11-18T02:00:16;2.60;99.90
4795;DHT22;2411;47.060;15.064;2022-11-18T02:02:44;2.60;99.90
4795;DHT22;2411;47.060;15.064;2022-11-18T02:05:12;2.50;99.90
4795;DHT22;2411;47.060;15.064;2022-11-18T02:07:42;2.30;99.90
4795;DHT22;2411;47.060;15.064;2022-11-18T02:10:17;2.30;99.90
4795;DHT22;2411;47.060;15.064;2022-11-18T02:12:45;2.40;99.90
4795;DHT22;2411;47.060;15.064;2022-11-18T02:15:12;2.30;99.90
4795;DHT22;2411;47.060;15.064;2022-11-18T02:17:47;2.30;99.90
4795;DHT22;2411;47.060;15.064;2022-11-18T02:20:30;2.40;99.90
4795;DHT22;2411;47.060;15.064;2022-11-18T02:29:07;2.20;99.90
4795;DHT22;2411;47.060;15.064;2022-11-18T02:34:12;2.30;99.90
4795;DHT22;2411;47.060;15.064;2022-11-18T02:36:49;2.30;99.90
4795;DHT22;2411;47.060;15.064;2022-11-18T02:39:26;2.30;99.90
4795;DHT22;2411;47.060;15.064;2022-11-18T02:41:56;2.30;99.90
4795;DHT22;2411;47.060;15.064;2022-11-18T02:44:26;2.20;99.90
4795;DHT22;2411;47.060;15.064;2022-11-18T02:46:58;2.20;99.90
4795;DHT22;2411;47.060;15.064;2022-11-18T02:49:35;2.20;99.90
4795;DHT22;2411;47.060;15.064;2022-11-18T02:52:04;2.10;99.90
4795;DHT22;2411;47.060;15.064;2022-11-18T02:54:36;2.10;99.90
4795;DHT22;2411;47.060;15.064;2022-11-18T02:57:05;2.10;99.90
4795;DHT22;2411;47.060;15.064;2022-11-18T02:59:32;2.30;99.90
4795;DHT22;2411;47.060;15.064;2022-11-18T03:02:00;2.30;99.90
4795;DHT22;2411;47.060;15.064;2022-11-18T03:04:28;2.30;99.90
4795;DHT22;2411;47.060;15.064;2022-11-18T03:09:50;2.10;99.90
4795;DHT22;2411;47.060;15.064;2022-11-18T03:12:31;2.00;99.90
4795;DHT22;2411;47.060;15.064;2022-11-18T03:20:28;2.00;99.90
4795;DHT22;2411;47.060;15.064;2022-11-18T03:28:22;2.30;99.90
4795;DHT22;2411;47.060;15.064;2022-11-18T03:33:56;2.50;99.90
4795;DHT22;2411;47.060;15.064;2022-11-18T03:36:31;2.60;99.90
4795;DHT22;2411;47.060;15.064;2022-11-18T03:39:00;2.60;99.90
4795;DHT22;2411;47.060;15.064;2022-11-18T03:41:31;2.70;99.90
4795;DHT22;2411;47.060;15.064;2022-11-18T03:44:08;2.90;99.90
4795;DHT22;2411;47.060;15.064;2022-11-18T03:46:46;2.80;99.90
4795;DHT22;2411;47.060;15.064;2022-11-18T03:49:44;2.60;99.90
4795;DHT22;2411;47.060;15.064;2022-11-18T03:52:18;2.40;99.90
4795;DHT22;2411;47.060;15.064;2022-11-18T03:54:47;2.20;99.90
4795;DHT22;2411;47.060;15.064;2022-11-18T03:57:27;2.20;99.90
4795;DHT22;2411;47.060;15.064;2022-11-18T04:00:04;2.10;99.90
4795;DHT22;2411;47.060;15.064;2022-11-18T04:02:33;2.10;99.90
4795;DHT22;2411;47.060;15.064;2022-11-18T04:05:02;2.00;99.90
4795;DHT22;2411;47.060;15.064;2022-11-18T04:07:34;1.90;99.90
4795;DHT22;2411;47.060;15.064;2022-11-18T04:10:15;1.70;99.90
4795;DHT22;2411;47.060;15.064;2022-11-18T04:15:36;1.80;99.90
4795;DHT22;2411;47.060;15.064;2022-11-18T04:18:05;1.80;99.90
4795;DHT22;2411;47.060;15.064;2022-11-18T04:20:32;1.80;99.90
4795;DHT22;2411;47.060;15.064;2022-11-18T04:23:00;1.80;99.90
4795;DHT22;2411;47.060;15.064;2022-11-18T04:25:27;1.80;99.90
4795;DHT22;2411;47.060;15.064;2022-11-18T04:27:55;1.80;99.90
4795;DHT22;2411;47.060;15.064;2022-11-18T04:30:22;1.90;99.90
4795;DHT22;2411;47.060;15.064;2022-11-18T04:32:49;2.00;99.90
4795;DHT22;2411;47.060;15.064;2022-11-18T04:35:17;2.20;99.90
4795;DHT22;2411;47.060;15.064;2022-11-18T04:37:44;2.20;99.90
4795;DHT22;2411;47.060;15.064;2022-11-18T04:40:12;2.10;99.90
4795;DHT22;2411;47.060;15.064;2022-11-18T04:42:39;2.10;99.90
4795;DHT22;2411;47.060;15.064;2022-11-18T04:45:07;2.20;99.90
4795;DHT22;2411;47.060;15.064;2022-11-18T04:47:34;2.10;99.90
4795;DHT22;2411;47.060;15.064;2022-11-18T04:50:02;2.20;99.90
4795;DHT22;2411;47.060;15.064;2022-11-18T04:52:30;2.10;99.90
4795;DHT22;2411;47.060;15.064;2022-11-18T04:54:57;2.10;99.90
4795;DHT22;2411;47.060;15.064;2022-11-18T04:57:24;1.90;99.90
4795;DHT22;2411;47.060;15.064;2022-11-18T04:59:51;1.80;99.90
4795;DHT22;2411;47.060;15.064;2022-11-18T05:02:18;1.80;99.90
4795;DHT22;2411;47.060;15.064;2022-11-18T05:04:46;1.90;99.90
4795;DHT22;2411;47.060;15.064;2022-11-18T05:07:14;1.90;99.90
4795;DHT22;2411;47.060;15.064;2022-11-18T05:09:42;1.90;99.90
4795;DHT22;2411;47.060;15.064;2022-11-18T05:12:13;1.90;99.90
4795;DHT22;2411;47.060;15.064;2022-11-18T05:15:00;1.90;99.90
4795;DHT22;2411;47.060;15.064;2022-11-18T05:17:27;1.80;99.90
4795;DHT22;2411;47.060;15.064;2022-11-18T05:19:54;1.80;99.90
4795;DHT22;2411;47.060;15.064;2022-11-18T05:22:21;1.80;99.90
4795;DHT22;2411;47.060;15.064;2022-11-18T05:24:49;1.80;99.90
4795;DHT22;2411;47.060;15.064;2022-11-18T05:27:16;1.90;99.90
4795;DHT22;2411;47.060;15.064;2022-11-18T05:29:43;1.90;99.90
4795;DHT22;2411;47.060;15.064;2022-11-18T05:32:11;2.00;99.90
4795;DHT22;2411;47.060;15.064;2022-11-18T05:34:39;2.00;99.90
4795;DHT22;2411;47.060;15.064;2022-11-18T05:37:07;2.00;99.90
4795;DHT22;2411;47.060;15.064;2022-11-18T05:39:34;2.00;99.90
4795;DHT22;2411;47.060;15.064;2022-11-18T05:42:02;2.10;99.90
4795;DHT22;2411;47.060;15.064;2022-11-18T05:44:48;2.10;99.90
4795;DHT22;2411;47.060;15.064;2022-11-18T05:47:24;2.10;99.90
4795;DHT22;2411;47.060;15.064;2022-11-18T05:49:51;2.10;99.90
4795;DHT22;2411;47.060;15.064;2022-11-18T05:52:18;2.30;99.90
4795;DHT22;2411;47.060;15.064;2022-11-18T05:54:48;2.20;99.90
4795;DHT22;2411;47.060;15.064;2022-11-18T05:57:16;2.10;99.90
4795;DHT22;2411;47.060;15.064;2022-11-18T05:59:43;2.00;99.90
4795;DHT22;2411;47.060;15.064;2022-11-18T06:02:17;2.00;99.90
4795;DHT22;2411;47.060;15.064;2022-11-18T06:04:49;2.00;99.90
4795;DHT22;2411;47.060;15.064;2022-11-18T06:07:26;2.00;99.90
4795;DHT22;2411;47.060;15.064;2022-11-18T06:09:58;2.00;99.90
4795;DHT22;2411;47.060;15.064;2022-11-18T06:12:36;2.30;99.90
4795;DHT22;2411;47.060;15.064;2022-11-18T06:18:26;2.20;99.90
4795;DHT22;2411;47.060;15.064;2022-11-18T06:20:59;2.20;99.90
4795;DHT22;2411;47.060;15.064;2022-11-18T06:23:34;2.10;99.90
4795;DHT22;2411;47.060;15.064;2022-11-18T06:26:01;2.00;99.90
4795;DHT22;2411;47.060;15.064;2022-11-18T06:28:29;2.00;99.90
4795;DHT22;2411;47.060;15.064;2022-11-18T06:30:56;2.00;99.90
4795;DHT22;2411;47.060;15.064;2022-11-18T06:33:24;2.10;99.90
4795;DHT22;2411;47.060;15.064;2022-11-18T06:35:52;2.00;99.90
4795;DHT22;2411;47.060;15.064;2022-11-18T06:38:22;2.00;99.90
4795;DHT22;2411;47.060;15.064;2022-11-18T06:40:50;2.00;99.90
4795;DHT22;2411;47.060;15.064;2022-11-18T06:43:17;2.10;99.90
4795;DHT22;2411;47.060;15.064;2022-11-18T06:46:04;2.10;99.90
4795;DHT22;2411;47.060;15.064;2022-11-18T06:48:50;2.20;99.90
4795;DHT22;2411;47.060;15.064;2022-11-18T06:51:18;2.20;99.90
4795;DHT22;2411;47.060;15.064;2022-11-18T06:53:45;2.30;99.90
4795;DHT22;2411;47.060;15.064;2022-11-18T06:56:14;2.40;99.90
4795;DHT22;2411;47.060;15.064;2022-11-18T06:58:42;2.40;99.90
4795;DHT22;2411;47.060;15.064;2022-11-18T07:01:15;2.60;99.90
4795;DHT22;2411;47.060;15.064;2022-11-18T07:03:45;2.70;99.90
4795;DHT22;2411;47.060;15.064;2022-11-18T07:06:14;2.90;99.90
4795;DHT22;2411;47.060;15.064;2022-11-18T07:08:42;3.00;99.90
4795;DHT22;2411;47.060;15.064;2022-11-18T07:11:12;3.10;99.90
4795;DHT22;2411;47.060;15.064;2022-11-18T07:13:41;3.10;99.90
4795;DHT22;2411;47.060;15.064;2022-11-18T07:16:12;3.10;99.90
4795;DHT22;2411;47.060;15.064;2022-11-18T07:18:41;3.20;99.90
4795;DHT22;2411;47.060;15.064;2022-11-18T07:21:11;3.30;99.90
4795;DHT22;2411;47.060;15.064;2022-11-18T07:23:39;3.30;99.90
4795;DHT22;2411;47.060;15.064;2022-11-18T07:26:07;3.20;99.90
4795;DHT22;2411;47.060;15.064;2022-11-18T07:28:34;3.00;95.60
4795;DHT22;2411;47.060;15.064;2022-11-18T07:31:06;3.00;96.80
4795;DHT22;2411;47.060;15.064;2022-11-18T07:33:34;3.00;98.60
4795;DHT22;2411;47.060;15.064;2022-11-18T07:38:30;3.10;99.90
4795;DHT22;2411;47.060;15.064;2022-11-18T07:41:15;3.10;99.90
4795;DHT22;2411;47.060;15.064;2022-11-18T07:43:43;3.20;99.90
4795;DHT22;2411;47.060;15.064;2022-11-18T07:46:22;3.10;99.90
4795;DHT22;2411;47.060;15.064;2022-11-18T07:48:51;3.20;99.90
4795;DHT22;2411;47.060;15.064;2022-11-18T07:51:21;3.20;99.90
4795;DHT22;2411;47.060;15.064;2022-11-18T07:53:49;3.20;99.90
4795;DHT22;2411;47.060;15.064;2022-11-18T07:56:17;3.20;99.90
4795;DHT22;2411;47.060;15.064;2022-11-18T07:58:45;3.20;99.90
4795;DHT22;2411;47.060;15.064;2022-11-18T08:01:15;3.20;99.90
4795;DHT22;2411;47.060;15.064;2022-11-18T08:03:43;3.20;99.90
4795;DHT22;2411;47.060;15.064;2022-11-18T08:06:13;3.30;99.90
4795;DHT22;2411;47.060;15.064;2022-11-18T08:08:43;3.30;99.90
4795;DHT22;2411;47.060;15.064;2022-11-18T08:11:13;3.40;99.90
4795;DHT22;2411;47.060;15.064;2022-11-18T08:13:48;3.40;99.90
4795;DHT22;2411;47.060;15.064;2022-11-18T08:16:17;3.50;99.90
4795;DHT22;2411;47.060;15.064;2022-11-18T08:18:45;3.60;99.90
4795;DHT22;2411;47.060;15.064;2022-11-18T08:21:13;3.60;99.90
4795;DHT22;2411;47.060;15.064;2022-11-18T08:23:41;3.60;99.90
4795;DHT22;2411;47.060;15.064;2022-11-18T08:26:11;3.70;99.90
4795;DHT22;2411;47.060;15.064;2022-11-18T08:28:41;3.70;99.90
4795;DHT22;2411;47.060;15.064;2022-11-18T08:31:20;3.60;99.90
4795;DHT22;2411;47.060;15.064;2022-11-18T08:33:47;3.60;99.90
4795;DHT22;2411;47.060;15.064;2022-11-18T08:36:20;3.70;99.90
4795;DHT22;2411;47.060;15.064;2022-11-18T08:38:47;3.70;99.90
4795;DHT22;2411;47.060;15.064;2022-11-18T08:41:20;3.80;99.90
4795;DHT22;2411;47.060;15.064;2022-11-18T08:43:51;3.80;99.90
4795;DHT22;2411;47.060;15.064;2022-11-18T08:46:18;3.80;99.90
4795;DHT22;2411;47.060;15.064;2022-11-18T08:48:45;3.90;99.90
4795;DHT22;2411;47.060;15.064;2022-11-18T08:51:13;3.90;99.90
4795;DHT22;2411;47.060;15.064;2022-11-18T08:53:41;4.00;99.90
4795;DHT22;2411;47.060;15.064;2022-11-18T08:56:14;4.10;99.90
4795;DHT22;2411;47.060;15.064;2022-11-18T08:58:43;4.10;99.90
4795;DHT22;2411;47.060;15.064;2022-11-18T09:01:10;4.10;99.90
4795;DHT22;2411;47.060;15.064;2022-11-18T09:03:38;4.10;99.90
4795;DHT22;2411;47.060;15.064;2022-11-18T09:06:09;4.10;99.90
4795;DHT22;2411;47.060;15.064;2022-11-18T09:08:37;4.20;99.90
4795;DHT22;2411;47.060;15.064;2022-11-18T09:11:10;4.30;99.90
4795;DHT22;2411;47.060;15.064;2022-11-18T09:13:37;4.30;99.90
4795;DHT22;2411;47.060;15.064;2022-11-18T09:16:27;4.30;99.90
4795;DHT22;2411;47.060;15.064;2022-11-18T09:18:55;4.40;99.90
4795;DHT22;2411;47.060;15.064;2022-11-18T09:21:24;4.50;99.90
4795;DHT22;2411;47.060;15.064;2022-11-18T09:23:52;4.50;99.90
4795;DHT22;2411;47.060;15.064;2022-11-18T09:26:21;4.50;99.90
4795;DHT22;2411;47.060;15.064;2022-11-18T09:28:52;4.50;99.90
4795;DHT22;2411;47.060;15.064;2022-11-18T09:31:20;4.50;99.90
4795;DHT22;2411;47.060;15.064;2022-11-18T09:33:47;4.50;99.90
4795;DHT22;2411;47.060;15.064;2022-11-18T09:36:21;4.60;99.90
4795;DHT22;2411;47.060;15.064;2022-11-18T09:38:50;4.60;99.90
4795;DHT22;2411;47.060;15.064;2022-11-18T09:49:37;4.70;99.90
4795;DHT22;2411;47.060;15.064;2022-11-18T09:54:39;4.70;99.90
4795;DHT22;2411;47.060;15.064;2022-11-18T09:57:17;4.80;99.90
4795;DHT22;2411;47.060;15.064;2022-11-18T09:59:45;4.80;99.90
4795;DHT22;2411;47.060;15.064;2022-11-18T10:04:49;4.90;99.90
4795;DHT22;2411;47.060;15.064;2022-11-18T10:07:35;4.90;99.90
4795;DHT22;2411;47.060;15.064;2022-11-18T10:10:18;4.90;97.50
4795;DHT22;2411;47.060;15.064;2022-11-18T10:13:03;4.90;99.40
4795;DHT22;2411;47.060;15.064;2022-11-18T10:15:45;5.00;99.90
4795;DHT22;2411;47.060;15.064;2022-11-18T10:18:27;4.90;99.90
4795;DHT22;2411;47.060;15.064;2022-11-18T10:21:25;4.90;99.90
4795;DHT22;2411;47.060;15.064;2022-11-18T10:23:59;5.00;99.90
4795;DHT22;2411;47.060;15.064;2022-11-18T10:26:36;5.00;99.90
4795;DHT22;2411;47.060;15.064;2022-11-18T10:29:04;5.00;99.90
4795;DHT22;2411;47.060;15.064;2022-11-18T10:34:32;5.00;95.90
4795;DHT22;2411;47.060;15.064;2022-11-18T10:37:20;5.10;92.50
4795;DHT22;2411;47.060;15.064;2022-11-18T10:40:23;5.10;92.70
4795;DHT22;2411;47.060;15.064;2022-11-18T10:42:50;5.20;92.90
4795;DHT22;2411;47.060;15.064;2022-11-18T10:45:29;5.30;94.70
4795;DHT22;2411;47.060;15.064;2022-11-18T10:55:58;5.70;76.60
4795;DHT22;2411;47.060;15.064;2022-11-18T10:58:28;5.90;64.00
4795;DHT22;2411;47.060;15.064;2022-11-18T11:03:42;6.10;62.90
4795;DHT22;2411;47.060;15.064;2022-11-18T11:06:26;6.20;61.20
4795;DHT22;2411;47.060;15.064;2022-11-18T11:09:00;6.30;68.00
4795;DHT22;2411;47.060;15.064;2022-11-18T11:16:57;6.60;85.40
4795;DHT22;2411;47.060;15.064;2022-11-18T11:19:51;6.60;90.60
4795;DHT22;2411;47.060;15.064;2022-11-18T11:22:22;6.60;90.10
4795;DHT22;2411;47.060;15.064;2022-11-18T11:24:49;6.60;87.50
4795;DHT22;2411;47.060;15.064;2022-11-18T11:27:36;6.50;88.10
4795;DHT22;2411;47.060;15.064;2022-11-18T11:30:23;6.50;92.40
4795;DHT22;2411;47.060;15.064;2022-11-18T11:33:30;6.60;92.50
4795;DHT22;2411;47.060;15.064;2022-11-18T11:36:41;6.60;92.90
4795;DHT22;2411;47.060;15.064;2022-11-18T11:45:23;6.90;96.90
4795;DHT22;2411;47.060;15.064;2022-11-18T11:48:51;6.90;97.60
4795;DHT22;2411;47.060;15.064;2022-11-18T11:50:58;7.00;94.00
4795;DHT22;2411;47.060;15.064;2022-11-18T12:02:30;7.10;77.90
4795;DHT22;2411;47.060;15.064;2022-11-18T12:07:59;7.40;78.50
4795;DHT22;2411;47.060;15.064;2022-11-18T12:18:42;7.60;61.30
4795;DHT22;2411;47.060;15.064;2022-11-18T12:32:38;7.90;50.80
4795;DHT22;2411;47.060;15.064;2022-11-18T12:40:31;8.00;52.10
4795;DHT22;2411;47.060;15.064;2022-11-18T12:42:59;7.80;70.30
4795;DHT22;2411;47.060;15.064;2022-11-18T12:53:49;7.70;45.90
4795;DHT22;2411;47.060;15.064;2022-11-18T12:58:49;7.40;45.60
4795;DHT22;2411;47.060;15.064;2022-11-18T13:01:19;7.30;45.50
4795;DHT22;2411;47.060;15.064;2022-11-18T13:03:47;7.30;48.30
4795;DHT22;2411;47.060;15.064;2022-11-18T13:06:24;7.30;49.50
4795;DHT22;2411;47.060;15.064;2022-11-18T13:09:19;7.30;50.70
4795;DHT22;2411;47.060;15.064;2022-11-18T13:14:32;7.30;51.40
4795;DHT22;2411;47.060;15.064;2022-11-18T13:17:39;7.40;53.90
4795;DHT22;2411;47.060;15.064;2022-11-18T13:26:25;7.40;51.20
4795;DHT22;2411;47.060;15.064;2022-11-18T13:31:37;7.40;52.20
4795;DHT22;2411;47.060;15.064;2022-11-18T13:34:23;7.40;51.20
4795;DHT22;2411;47.060;15.064;2022-11-18T13:36:56;7.40;51.00
4795;DHT22;2411;47.060;15.064;2022-11-18T13:42:03;7.30;49.10
4795;DHT22;2411;47.060;15.064;2022-11-18T13:44:36;7.30;48.70
4795;DHT22;2411;47.060;15.064;2022-11-18T13:52:04;7.30;56.70
4795;DHT22;2411;47.060;15.064;2022-11-18T13:54:31;7.30;59.40
4795;DHT22;2411;47.060;15.064;2022-11-18T13:56:58;7.30;58.80
4795;DHT22;2411;47.060;15.064;2022-11-18T13:59:25;7.30;59.40
4795;DHT22;2411;47.060;15.064;2022-11-18T14:01:57;7.20;62.30
4795;DHT22;2411;47.060;15.064;2022-11-18T14:04:30;7.30;68.20
4795;DHT22;2411;47.060;15.064;2022-11-18T14:07:30;7.20;64.80
4795;DHT22;2411;47.060;15.064;2022-11-18T14:10:07;7.10;63.90
4795;DHT22;2411;47.060;15.064;2022-11-18T14:12:36;7.10;66.80
4795;DHT22;2411;47.060;15.064;2022-11-18T14:15:31;7.10;67.00
4795;DHT22;2411;47.060;15.064;2022-11-18T14:18:00;7.10;65.00
4795;DHT22;2411;47.060;15.064;2022-11-18T14:20:29;7.10;60.70
4795;DHT22;2411;47.060;15.064;2022-11-18T14:22:59;7.00;59.30
4795;DHT22;2411;47.060;15.064;2022-11-18T14:25:32;7.10;67.30
4795;DHT22;2411;47.060;15.064;2022-11-18T14:33:24;7.10;62.70
4795;DHT22;2411;47.060;15.064;2022-11-18T14:35:58;7.10;66.00
4795;DHT22;2411;47.060;15.064;2022-11-18T14:41:23;7.00;67.40
4795;DHT22;2411;47.060;15.064;2022-11-18T14:44:11;7.00;69.50
4795;DHT22;2411;47.060;15.064;2022-11-18T14:46:43;6.90;69.40
4795;DHT22;2411;47.060;15.064;2022-11-18T14:49:17;6.90;68.10
4795;DHT22;2411;47.060;15.064;2022-11-18T14:51:45;6.80;70.60
4795;DHT22;2411;47.060;15.064;2022-11-18T14:54:16;6.80;73.60
4795;DHT22;2411;47.060;15.064;2022-11-18T14:56:54;6.70;74.70
4795;DHT22;2411;47.060;15.064;2022-11-18T14:59:23;6.70;81.60
4795;DHT22;2411;47.060;15.064;2022-11-18T15:01:50;6.70;89.70
4795;DHT22;2411;47.060;15.064;2022-11-18T15:04:17;6.70;91.70
4795;DHT22;2411;47.060;15.064;2022-11-18T15:06:47;6.70;91.00
4795;DHT22;2411;47.060;15.064;2022-11-18T15:09:14;6.70;91.10
4795;DHT22;2411;47.060;15.064;2022-11-18T15:11:41;6.60;88.60
4795;DHT22;2411;47.060;15.064;2022-11-18T15:14:09;6.50;90.30
4795;DHT22;2411;47.060;15.064;2022-11-18T15:16:36;6.50;90.80
4795;DHT22;2411;47.060;15.064;2022-11-18T15:19:04;6.50;93.30
4795;DHT22;2411;47.060;15.064;2022-11-18T15:21:32;6.50;92.70
4795;DHT22;2411;47.060;15.064;2022-11-18T15:23:59;6.50;94.10
4795;DHT22;2411;47.060;15.064;2022-11-18T15:26:28;6.50;96.80
4795;DHT22;2411;47.060;15.064;2022-11-18T15:28:56;6.60;97.10
4795;DHT22;2411;47.060;15.064;2022-11-18T15:31:24;6.60;97.10
4795;DHT22;2411;47.060;15.064;2022-11-18T15:33:52;6.60;96.00
4795;DHT22;2411;47.060;15.064;2022-11-18T15:36:22;6.70;92.60
4795;DHT22;2411;47.060;15.064;2022-11-18T15:38:51;6.70;92.20
4795;DHT22;2411;47.060;15.064;2022-11-18T15:41:24;6.70;99.90
4795;DHT22;2411;47.060;15.064;2022-11-18T15:43:53;6.60;89.30
4795;DHT22;2411;47.060;15.064;2022-11-18T15:46:22;6.60;92.20
4795;DHT22;2411;47.060;15.064;2022-11-18T15:48:51;6.60;92.20
4795;DHT22;2411;47.060;15.064;2022-11-18T15:51:19;6.60;94.90
4795;DHT22;2411;47.060;15.064;2022-11-18T15:53:47;6.60;94.50
4795;DHT22;2411;47.060;15.064;2022-11-18T15:58:59;6.40;92.80
4795;DHT22;2411;47.060;15.064;2022-11-18T16:01:32;6.40;93.40
4795;DHT22;2411;47.060;15.064;2022-11-18T16:04:00;6.30;95.00
4795;DHT22;2411;47.060;15.064;2022-11-18T16:06:27;6.30;96.00
4795;DHT22;2411;47.060;15.064;2022-11-18T16:08:55;6.30;98.20
4795;DHT22;2411;47.060;15.064;2022-11-18T16:11:27;6.30;98.30
4795;DHT22;2411;47.060;15.064;2022-11-18T16:14:15;6.30;97.60
4795;DHT22;2411;47.060;15.064;2022-11-18T16:16:45;6.30;98.90
4795;DHT22;2411;47.060;15.064;2022-11-18T16:19:15;6.20;98.70
4795;DHT22;2411;47.060;15.064;2022-11-18T16:21:45;6.20;98.80
4795;DHT22;2411;47.060;15.064;2022-11-18T16:24:18;6.30;99.70
4795;DHT22;2411;47.060;15.064;2022-11-18T16:26:47;6.30;99.90
4795;DHT22;2411;47.060;15.064;2022-11-18T16:29:14;6.30;96.90
4795;DHT22;2411;47.060;15.064;2022-11-18T16:31:44;6.30;96.70
4795;DHT22;2411;47.060;15.064;2022-11-18T16:34:26;6.30;97.10
4795;DHT22;2411;47.060;15.064;2022-11-18T16:36:58;6.30;96.60
4795;DHT22;2411;47.060;15.064;2022-11-18T16:39:28;6.20;97.30
4795;DHT22;2411;47.060;15.064;2022-11-18T16:41:57;6.10;96.70
4795;DHT22;2411;47.060;15.064;2022-11-18T16:44:33;6.10;99.00
4795;DHT22;2411;47.060;15.064;2022-11-18T16:47:01;6.00;96.80
4795;DHT22;2411;47.060;15.064;2022-11-18T16:49:33;6.00;99.60
4795;DHT22;2411;47.060;15.064;2022-11-18T16:52:00;6.00;99.90
4795;DHT22;2411;47.060;15.064;2022-11-18T16:54:29;5.90;99.80
4795;DHT22;2411;47.060;15.064;2022-11-18T16:56:58;5.90;99.90
4795;DHT22;2411;47.060;15.064;2022-11-18T16:59:27;5.90;99.90
4795;DHT22;2411;47.060;15.064;2022-11-18T17:01:57;6.00;99.90
4795;DHT22;2411;47.060;15.064;2022-11-18T17:04:26;6.00;99.90
4795;DHT22;2411;47.060;15.064;2022-11-18T17:06:54;6.00;99.90
4795;DHT22;2411;47.060;15.064;2022-11-18T17:09:23;6.00;99.90
4795;DHT22;2411;47.060;15.064;2022-11-18T17:11:51;5.90;99.90
4795;DHT22;2411;47.060;15.064;2022-11-18T17:14:19;5.90;99.90
4795;DHT22;2411;47.060;15.064;2022-11-18T17:16:48;5.80;99.90
4795;DHT22;2411;47.060;15.064;2022-11-18T17:19:17;5.70;99.90
4795;DHT22;2411;47.060;15.064;2022-11-18T17:21:45;5.70;99.90
4795;DHT22;2411;47.060;15.064;2022-11-18T17:24:14;5.70;99.90
4795;DHT22;2411;47.060;15.064;2022-11-18T17:26:42;5.70;99.90
4795;DHT22;2411;47.060;15.064;2022-11-18T17:29:11;5.70;99.90
4795;DHT22;2411;47.060;15.064;2022-11-18T17:31:38;5.60;99.90
4795;DHT22;2411;47.060;15.064;2022-11-18T17:34:09;5.60;99.90
4795;DHT22;2411;47.060;15.064;2022-11-18T17:36:36;5.60;99.90
4795;DHT22;2411;47.060;15.064;2022-11-18T17:39:04;5.60;99.90
4795;DHT22;2411;47.060;15.064;2022-11-18T17:41:31;5.50;99.90
4795;DHT22;2411;47.060;15.064;2022-11-18T17:44:17;5.60;99.90
4795;DHT22;2411;47.060;15.064;2022-11-18T17:46:45;5.50;99.90
4795;DHT22;2411;47.060;15.064;2022-11-18T17:49:15;5.50;99.90
4795;DHT22;2411;47.060;15.064;2022-11-18T17:51:44;5.40;99.90
4795;DHT22;2411;47.060;15.064;2022-11-18T17:54:17;5.30;99.90
4795;DHT22;2411;47.060;15.064;2022-11-18T17:56:45;5.20;99.90
4795;DHT22;2411;47.060;15.064;2022-11-18T17:59:13;5.30;99.90
4795;DHT22;2411;47.060;15.064;2022-11-18T18:01:41;5.30;99.90
4795;DHT22;2411;47.060;15.064;2022-11-18T18:04:09;5.20;99.90
4795;DHT22;2411;47.060;15.064;2022-11-18T18:06:37;5.30;99.90
4795;DHT22;2411;47.060;15.064;2022-11-18T18:09:04;5.40;99.90
4795;DHT22;2411;47.060;15.064;2022-11-18T18:11:31;5.40;99.90
4795;DHT22;2411;47.060;15.064;2022-11-18T18:13:58;5.40;99.90
4795;DHT22;2411;47.060;15.064;2022-11-18T18:16:46;5.30;99.90
4795;DHT22;2411;47.060;15.064;2022-11-18T18:19:20;5.10;99.90
4795;DHT22;2411;47.060;15.064;2022-11-18T18:21:48;4.90;99.10
4795;DHT22;2411;47.060;15.064;2022-11-18T18:24:16;4.80;99.90
4795;DHT22;2411;47.060;15.064;2022-11-18T18:26:46;4.80;99.90
4795;DHT22;2411;47.060;15.064;2022-11-18T18:29:13;4.70;99.90
4795;DHT22;2411;47.060;15.064;2022-11-18T18:31:40;4.60;99.90
4795;DHT22;2411;47.060;15.064;2022-11-18T18:34:07;4.60;99.90
4795;DHT22;2411;47.060;15.064;2022-11-18T18:36:35;4.70;99.90
4795;DHT22;2411;47.060;15.064;2022-11-18T18:39:03;4.70;99.90
4795;DHT22;2411;47.060;15.064;2022-11-18T18:41:30;4.80;99.90
4795;DHT22;2411;47.060;15.064;2022-11-18T18:43:59;4.70;99.90
4795;DHT22;2411;47.060;15.064;2022-11-18T18:46:27;4.60;99.90
4795;DHT22;2411;47.060;15.064;2022-11-18T18:51:40;4.50;99.90
4795;DHT22;2411;47.060;15.064;2022-11-18T18:54:13;4.50;99.90
4795;DHT22;2411;47.060;15.064;2022-11-18T18:56:40;4.50;99.90
4795;DHT22;2411;47.060;15.064;2022-11-18T18:59:08;4.40;99.90
4795;DHT22;2411;47.060;15.064;2022-11-18T19:01:36;4.30;99.90
4795;DHT22;2411;47.060;15.064;2022-11-18T19:04:05;4.40;99.90
4795;DHT22;2411;47.060;15.064;2022-11-18T19:06:37;4.40;99.90